createdAt,value
2018-07-11T00:01:47.915Z,1.20
2018-07-11T00:04:17.054Z,1.23
2018-07-11T00:06:46.130Z,1.13
2018-07-11T00:09:15.372Z,1.30
2018-07-11T00:11:44.497Z,1.50
2018-07-11T00:14:13.594Z,1.73
2018-07-11T00:16:48.013Z,1.60
2018-07-11T00:19:17.118Z,1.47
2018-07-11T00:21:47.078Z,1.90
2018-07-11T00:24:16.261Z,1.93
2018-07-11T00:26:45.353Z,1.70
2018-07-11T00:29:14.452Z,1.83
2018-07-11T00:31:43.568Z,1.60
2018-07-11T00:34:13.459Z,1.83
2018-07-11T00:36:42.551Z,1.50
2018-07-11T00:39:11.678Z,1.53
2018-07-11T00:41:40.772Z,1.80
2018-07-11T00:44:09.948Z,1.73
2018-07-11T00:46:39.042Z,1.53
2018-07-11T00:49:08.181Z,2.13
2018-07-11T00:51:37.284Z,1.80
2018-07-11T00:54:06.651Z,1.90
2018-07-11T00:56:35.788Z,2.10
2018-07-11T00:59:38.745Z,2.67
2018-07-11T01:02:08.125Z,2.17
2018-07-11T01:04:55.602Z,2.10
2018-07-11T01:07:27.275Z,2.30
2018-07-11T01:09:56.360Z,2.40
2018-07-11T01:12:25.487Z,3.10
2018-07-11T01:14:54.554Z,2.80
2018-07-11T01:17:28.913Z,2.80
2018-07-11T01:19:58.004Z,2.70
2018-07-11T01:22:27.067Z,2.80
2018-07-11T01:24:56.191Z,2.70
2018-07-11T01:27:25.308Z,2.70
2018-07-11T01:29:54.411Z,3.17
2018-07-11T01:32:23.959Z,3.13
2018-07-11T01:34:53.033Z,3.37
2018-07-11T01:37:23.234Z,3.37
2018-07-11T01:39:52.676Z,3.00
2018-07-11T01:42:21.775Z,3.23
2018-07-11T01:44:57.160Z,3.97
2018-07-11T01:47:26.284Z,3.17
2018-07-11T01:49:55.335Z,4.30
2018-07-11T01:52:35.733Z,4.33
2018-07-11T01:55:04.838Z,3.80
2018-07-11T01:57:33.951Z,4.13
2018-07-11T02:00:03.099Z,3.90
2018-07-11T02:02:32.234Z,4.03
2018-07-11T02:05:01.449Z,5.17
2018-07-11T02:07:30.555Z,4.80
2018-07-11T02:09:59.700Z,4.93
2018-07-11T02:12:28.784Z,4.77
2018-07-11T02:15:03.575Z,5.37
2018-07-11T02:17:33.186Z,5.53
2018-07-11T02:20:02.361Z,5.47
2018-07-11T02:22:31.502Z,5.13
2018-07-11T02:25:01.997Z,5.73
2018-07-11T02:27:31.188Z,5.60
2018-07-11T02:30:17.630Z,5.90
2018-07-11T02:32:50.650Z,5.70
2018-07-11T02:35:19.763Z,5.23
2018-07-11T02:37:49.685Z,5.27
2018-07-11T02:40:18.731Z,5.53
2018-07-11T02:42:47.878Z,5.70
2018-07-11T02:45:16.983Z,5.30
2018-07-11T02:47:46.095Z,5.97
2018-07-11T02:50:15.227Z,5.30
2018-07-11T02:52:44.351Z,5.93
2018-07-11T02:55:13.453Z,5.60
2018-07-11T02:57:42.540Z,6.00
2018-07-11T03:00:11.626Z,5.63
2018-07-11T03:02:40.750Z,9.27
2018-07-11T03:05:09.873Z,5.90
2018-07-11T03:07:39.044Z,6.20
2018-07-11T03:10:08.114Z,6.40
2018-07-11T03:12:37.241Z,7.00
2018-07-11T03:15:06.359Z,6.43
2018-07-11T03:17:35.466Z,7.63
2018-07-11T03:20:04.709Z,7.23
2018-07-11T03:22:33.994Z,7.70
2018-07-11T03:25:03.058Z,8.57
2018-07-11T03:27:32.145Z,8.43
2018-07-11T03:30:01.225Z,9.13
2018-07-11T03:32:30.357Z,8.97
2018-07-11T03:34:59.454Z,9.47
2018-07-11T03:37:28.526Z,9.80
2018-07-11T03:39:57.773Z,9.67
2018-07-11T03:42:26.881Z,9.77
2018-07-11T03:44:55.957Z,9.33
2018-07-11T03:47:25.068Z,10.63
2018-07-11T03:49:54.184Z,10.23
2018-07-11T03:52:23.252Z,10.77
2018-07-11T03:54:52.419Z,11.17
2018-07-11T03:57:21.541Z,12.20
2018-07-11T03:59:50.614Z,11.63
2018-07-11T04:02:19.702Z,11.30
2018-07-11T04:04:48.794Z,10.80
2018-07-11T04:07:17.921Z,11.27
2018-07-11T04:09:47.002Z,10.10
2018-07-11T04:12:16.096Z,11.60
2018-07-11T04:14:45.183Z,11.10
2018-07-11T04:17:14.247Z,11.33
2018-07-11T04:19:43.335Z,11.20
2018-07-11T04:22:12.432Z,11.00
2018-07-11T04:24:41.586Z,11.63
2018-07-11T04:27:10.889Z,10.57
2018-07-11T04:29:39.964Z,10.67
2018-07-11T04:32:09.082Z,11.23
2018-07-11T04:34:38.149Z,9.93
2018-07-11T04:37:07.919Z,10.90
2018-07-11T04:39:37.009Z,10.67
2018-07-11T04:42:06.135Z,10.63
2018-07-11T04:44:35.242Z,10.43
2018-07-11T04:47:04.923Z,10.77
2018-07-11T04:49:34.084Z,9.67
2018-07-11T04:52:03.713Z,9.60
2018-07-11T04:54:33.100Z,10.53
2018-07-11T04:57:02.209Z,10.50
2018-07-11T04:59:31.477Z,9.77
2018-07-11T05:02:00.555Z,11.23
2018-07-11T05:04:29.726Z,10.20
2018-07-11T05:06:58.858Z,10.80
2018-07-11T05:09:27.945Z,10.60
2018-07-11T05:11:57.055Z,10.17
2018-07-11T05:14:26.113Z,9.93
2018-07-11T05:16:55.221Z,10.70
2018-07-11T05:19:24.536Z,10.33
2018-07-11T05:21:53.838Z,11.60
2018-07-11T05:24:22.973Z,11.13
2018-07-11T05:26:52.052Z,11.77
2018-07-11T05:29:21.137Z,11.43
2018-07-11T05:31:50.229Z,11.87
2018-07-11T05:34:19.369Z,13.50
2018-07-11T05:36:48.470Z,11.60
2018-07-11T05:39:17.576Z,13.90
2018-07-11T05:41:46.803Z,21.17
2018-07-11T05:44:15.900Z,14.10
2018-07-11T05:46:44.963Z,12.17
2018-07-11T05:49:14.073Z,12.47
2018-07-11T05:51:43.298Z,12.07
2018-07-11T05:54:12.425Z,12.00
2018-07-11T05:56:41.515Z,13.03
2018-07-11T05:59:10.635Z,13.50
2018-07-11T06:01:39.733Z,12.43
2018-07-11T06:04:08.888Z,13.13
2018-07-11T06:06:37.943Z,12.97
2018-07-11T06:09:07.404Z,13.83
2018-07-11T06:11:36.515Z,12.00
2018-07-11T06:14:05.574Z,12.70
2018-07-11T06:16:34.692Z,12.03
2018-07-11T06:19:03.876Z,11.97
2018-07-11T06:21:33.035Z,11.40
2018-07-11T06:24:02.800Z,16.57
2018-07-11T06:26:32.207Z,12.77
2018-07-11T06:29:01.344Z,11.80
2018-07-11T06:31:30.457Z,11.23
2018-07-11T06:33:59.546Z,12.77
2018-07-11T06:36:28.642Z,10.23
2018-07-11T06:38:57.715Z,11.37
2018-07-11T06:41:26.835Z,11.27
2018-07-11T06:43:55.931Z,11.10
2018-07-11T06:46:25.019Z,12.10
2018-07-11T06:48:54.130Z,10.87
2018-07-11T06:51:24.168Z,11.27
2018-07-11T06:53:53.263Z,10.77
2018-07-11T06:56:22.385Z,10.63
2018-07-11T06:58:51.516Z,10.83
2018-07-11T07:01:21.595Z,10.27
2018-07-11T07:03:50.708Z,10.83
2018-07-11T07:06:19.796Z,10.07
2018-07-11T07:08:48.940Z,11.00
2018-07-11T07:11:18.026Z,10.57
2018-07-11T07:13:47.169Z,10.33
2018-07-11T07:16:16.246Z,9.63
2018-07-11T07:18:45.378Z,9.83
2018-07-11T07:21:14.432Z,9.33
2018-07-11T07:23:43.620Z,10.50
2018-07-11T07:26:12.792Z,9.80
2018-07-11T07:28:41.860Z,9.60
2018-07-11T07:31:10.963Z,9.70
2018-07-11T07:33:40.039Z,8.90
2018-07-11T07:36:09.151Z,10.10
2018-07-11T07:38:41.716Z,9.03
2018-07-11T07:41:11.213Z,9.33
2018-07-11T07:43:41.911Z,10.17
2018-07-11T07:46:11.041Z,10.07
2018-07-11T07:48:40.146Z,11.10
2018-07-11T07:51:09.250Z,11.70
2018-07-11T07:53:38.404Z,11.67
2018-07-11T07:56:07.674Z,11.00
2018-07-11T07:58:36.806Z,11.43
2018-07-11T08:01:05.930Z,11.47
2018-07-11T08:03:35.625Z,11.70
2018-07-11T08:06:04.744Z,12.70
2018-07-11T08:08:33.834Z,12.33
2018-07-11T08:11:02.967Z,12.00
2018-07-11T08:13:32.045Z,11.07
2018-07-11T08:16:01.148Z,11.37
2018-07-11T08:18:30.232Z,30.63
2018-07-11T08:20:59.359Z,8.67
2018-07-11T08:23:41.626Z,9.07
2018-07-11T08:26:22.374Z,8.40
2018-07-11T08:29:29.225Z,8.23
2018-07-11T08:32:13.666Z,7.57
2018-07-11T08:35:01.777Z,8.20
2018-07-11T08:39:45.107Z,9.20
2018-07-11T08:42:20.970Z,5.90
2018-07-11T08:47:07.780Z,5.00
2018-07-11T08:49:49.725Z,5.57
2018-07-11T08:52:31.789Z,5.67
2018-07-11T08:56:27.080Z,5.80
2018-07-11T09:01:12.426Z,5.13
2018-07-11T09:04:07.535Z,6.70
2018-07-11T09:06:47.700Z,6.50
2018-07-11T09:09:28.462Z,6.03
2018-07-11T09:13:35.979Z,6.80
2018-07-11T09:17:17.852Z,4.30
2018-07-11T09:23:04.051Z,3.97
2018-07-11T09:25:33.174Z,4.30
2018-07-11T09:28:02.302Z,3.33
2018-07-11T09:30:31.399Z,3.50
2018-07-11T09:33:00.461Z,3.67
2018-07-11T09:35:29.553Z,3.73
2018-07-11T09:37:58.649Z,3.60
2018-07-11T09:40:27.765Z,3.80
2018-07-11T09:42:57.152Z,3.30
2018-07-11T09:45:26.276Z,3.40
2018-07-11T09:47:55.418Z,3.00
2018-07-11T09:50:24.586Z,3.57
2018-07-11T09:52:53.725Z,3.77
2018-07-11T09:55:22.817Z,3.00
2018-07-11T09:57:52.045Z,2.67
2018-07-11T10:00:26.373Z,2.50
2018-07-11T10:02:55.496Z,3.10
2018-07-11T10:05:24.580Z,2.50
2018-07-11T10:07:53.706Z,3.10
2018-07-11T10:10:22.814Z,2.33
2018-07-11T10:12:52.024Z,3.27
2018-07-11T10:15:21.094Z,2.47
2018-07-11T10:17:50.217Z,2.40
2018-07-11T10:20:22.246Z,2.00
2018-07-11T10:22:51.374Z,2.63
2018-07-11T10:25:20.518Z,3.03
2018-07-11T10:27:59.682Z,2.87
2018-07-11T10:30:28.794Z,3.47
2018-07-11T10:32:57.868Z,2.73
2018-07-11T10:35:27.029Z,2.70
2018-07-11T10:37:56.109Z,2.80
2018-07-11T10:40:25.254Z,2.70
2018-07-11T10:42:54.363Z,3.13
2018-07-11T10:45:23.465Z,2.63
2018-07-11T10:47:52.576Z,4.07
2018-07-11T10:50:21.734Z,2.30
2018-07-11T10:52:50.858Z,2.10
2018-07-11T10:55:19.908Z,1.80
2018-07-11T10:57:49.453Z,1.80
2018-07-11T11:00:36.550Z,2.10
2018-07-11T11:02:53.253Z,1.40
2018-07-11T11:05:22.667Z,1.80
2018-07-11T11:07:52.822Z,1.50
2018-07-11T11:10:21.926Z,1.57
2018-07-11T11:12:51.021Z,1.60
2018-07-11T11:15:20.108Z,1.93
2018-07-11T11:17:49.154Z,2.10
2018-07-11T11:20:18.281Z,1.60
2018-07-11T11:22:47.345Z,2.10
2018-07-11T11:25:16.413Z,2.17
2018-07-11T11:27:45.498Z,2.10
2018-07-11T11:30:14.566Z,1.70
2018-07-11T11:32:43.688Z,2.00
2018-07-11T11:35:12.817Z,1.77
2018-07-11T11:37:41.975Z,1.90
2018-07-11T11:40:11.109Z,1.37
2018-07-11T11:42:40.386Z,2.73
2018-07-11T11:45:09.449Z,1.33
2018-07-11T11:47:38.571Z,1.90
2018-07-11T11:50:07.790Z,1.90
2018-07-11T11:52:36.889Z,1.93
2018-07-11T11:55:06.006Z,2.40
2018-07-11T11:57:35.118Z,2.40
2018-07-11T12:00:04.281Z,2.30
2018-07-11T12:02:33.607Z,2.20
2018-07-11T12:05:02.727Z,2.40
2018-07-11T12:07:31.806Z,2.10
2018-07-11T12:10:00.934Z,2.63
2018-07-11T12:12:30.087Z,2.63
2018-07-11T12:14:59.175Z,2.37
2018-07-11T12:17:28.285Z,2.40
2018-07-11T12:19:57.377Z,2.10
2018-07-11T12:22:27.062Z,1.93
2018-07-11T12:24:56.203Z,2.47
2018-07-11T12:27:25.403Z,2.23
2018-07-11T12:29:54.546Z,2.10
2018-07-11T12:32:23.621Z,1.70
2018-07-11T12:34:53.167Z,1.90
2018-07-11T12:37:22.609Z,2.10
2018-07-11T12:39:51.851Z,1.93
2018-07-11T12:42:21.049Z,2.13
2018-07-11T12:44:50.321Z,2.37
2018-07-11T12:47:24.634Z,1.90
2018-07-11T12:49:53.781Z,2.10
2018-07-11T12:52:22.894Z,2.27
2018-07-11T12:54:52.049Z,2.10
2018-07-11T12:57:21.180Z,2.10
2018-07-11T12:59:50.353Z,1.87
2018-07-11T13:02:19.496Z,2.10
2018-07-11T13:04:48.597Z,2.10
2018-07-11T13:07:17.686Z,2.03
2018-07-11T13:09:46.798Z,2.60
2018-07-11T13:12:15.990Z,2.60
2018-07-11T13:14:45.122Z,2.03
2018-07-11T13:17:14.204Z,2.23
2018-07-11T13:19:43.299Z,2.10
2018-07-11T13:22:12.483Z,2.57
2018-07-11T13:24:41.592Z,2.23
2018-07-11T13:27:10.686Z,2.43
2018-07-11T13:29:39.822Z,2.60
2018-07-11T13:32:08.894Z,3.10
2018-07-11T13:34:38.322Z,2.70
2018-07-11T13:37:07.597Z,2.50
2018-07-11T13:39:36.715Z,2.50
2018-07-11T13:42:05.819Z,2.80
2018-07-11T13:44:34.938Z,2.93
2018-07-11T13:47:08.212Z,2.47
2018-07-11T13:49:37.331Z,2.77
2018-07-11T13:52:06.838Z,2.90
2018-07-11T13:54:36.043Z,2.63
2018-07-11T13:57:05.707Z,2.47
2018-07-11T13:59:34.809Z,2.83
2018-07-11T14:02:04.510Z,3.50
2018-07-11T14:04:33.613Z,2.90
2018-07-11T14:07:02.721Z,3.83
2018-07-11T14:09:32.087Z,4.13
2018-07-11T14:12:01.233Z,2.93
2018-07-11T14:14:30.608Z,3.40
2018-07-11T14:16:59.791Z,3.60
2018-07-11T14:19:43.383Z,2.83
2018-07-11T14:22:27.883Z,2.77
2018-07-11T14:25:12.044Z,3.53
2018-07-11T14:27:58.077Z,3.43
2018-07-11T14:30:29.907Z,3.60
2018-07-11T14:33:03.988Z,3.57
2018-07-11T14:35:34.430Z,3.40
2018-07-11T14:38:03.544Z,3.67
2018-07-11T14:40:32.750Z,4.60
2018-07-11T14:43:01.851Z,4.60
2018-07-11T14:45:32.973Z,4.73
2018-07-11T14:48:09.538Z,4.97
2018-07-11T14:50:38.803Z,5.70
2018-07-11T14:53:07.933Z,5.60
2018-07-11T14:55:37.054Z,6.03
2018-07-11T14:58:06.199Z,5.90
2018-07-11T15:00:35.331Z,5.77
2018-07-11T15:03:04.511Z,6.57
2018-07-11T15:05:41.800Z,6.20
2018-07-11T15:08:14.988Z,6.10
2018-07-11T15:10:44.280Z,5.23
2018-07-11T15:13:13.456Z,5.27
2018-07-11T15:15:45.226Z,5.13
2018-07-11T15:18:16.954Z,4.67
2018-07-11T15:20:48.524Z,4.50
2018-07-11T15:23:31.480Z,4.90
2018-07-11T15:26:16.891Z,5.27
2018-07-11T15:29:03.529Z,4.77
2018-07-11T15:31:40.957Z,4.60
2018-07-11T15:34:30.039Z,4.37
2018-07-11T15:37:15.149Z,4.20
2018-07-11T15:40:03.046Z,4.43
2018-07-11T15:42:50.822Z,4.43
2018-07-11T15:45:31.053Z,4.93
2018-07-11T15:48:18.690Z,4.60
2018-07-11T15:50:52.060Z,5.00
2018-07-11T15:53:22.279Z,4.50
2018-07-11T15:55:53.080Z,6.20
2018-07-11T15:58:23.002Z,6.03
2018-07-11T16:00:52.447Z,5.87
2018-07-11T16:03:21.911Z,6.50
2018-07-11T16:05:52.476Z,6.80
2018-07-11T16:08:21.746Z,6.30
2018-07-11T16:10:53.385Z,6.80
2018-07-11T16:13:22.656Z,7.07
2018-07-11T16:15:52.332Z,7.93
2018-07-11T16:18:22.093Z,7.87
2018-07-11T16:20:52.153Z,6.77
2018-07-11T16:23:22.320Z,6.50
2018-07-11T16:25:52.043Z,6.20
2018-07-11T16:28:21.948Z,5.40
2018-07-11T16:30:51.106Z,5.97
2018-07-11T16:33:20.448Z,4.80
2018-07-11T16:35:49.618Z,5.03
2018-07-11T16:38:18.725Z,5.03
2018-07-11T16:40:47.915Z,4.53
2018-07-11T16:43:17.067Z,5.10
2018-07-11T16:45:46.368Z,4.40
2018-07-11T16:48:15.750Z,4.23
2018-07-11T16:50:44.937Z,4.27
2018-07-11T16:53:14.099Z,4.90
2018-07-11T16:55:43.277Z,4.50
2018-07-11T16:58:16.517Z,5.47
2018-07-11T17:00:47.893Z,4.00
2018-07-11T17:03:23.193Z,4.90
2018-07-11T17:06:04.551Z,4.60
2018-07-11T17:08:39.982Z,5.47
2018-07-11T17:11:24.111Z,6.43
2018-07-11T17:14:04.989Z,8.17
2018-07-11T17:16:48.642Z,8.33
2018-07-11T17:32:21.929Z,11.17
2018-07-11T17:34:58.565Z,12.13
2018-07-11T17:37:38.343Z,12.77
2018-07-11T17:40:12.969Z,15.17
2018-07-11T17:42:45.946Z,14.40
2018-07-11T17:45:21.242Z,15.30
2018-07-11T18:04:33.196Z,14.37
2018-07-11T18:07:17.112Z,14.13
2018-07-11T18:10:07.037Z,13.13
2018-07-11T18:12:54.179Z,12.70
2018-07-11T18:15:31.923Z,15.00
2018-07-11T18:18:39.670Z,13.30
2018-07-11T18:21:21.172Z,12.77
2018-07-11T18:24:06.349Z,11.97
2018-07-11T18:27:01.576Z,13.83
2018-07-11T18:29:42.072Z,13.73
2018-07-11T18:33:27.465Z,13.87
2018-07-11T18:36:07.581Z,11.50
2018-07-11T18:38:44.924Z,11.50
2018-07-11T18:41:28.697Z,11.93
2018-07-11T18:44:05.487Z,13.63
2018-07-11T18:47:44.357Z,12.70
2018-07-11T18:50:22.879Z,11.47
2018-07-11T18:52:55.456Z,11.47
2018-07-11T18:55:39.368Z,11.73
2018-07-11T18:58:16.456Z,11.97
2018-07-11T19:01:24.712Z,12.67
2018-07-11T19:06:44.219Z,11.47
2018-07-11T19:09:24.567Z,13.40
2018-07-11T19:12:00.939Z,13.37
2018-07-11T19:14:42.697Z,12.47
2018-07-11T19:17:37.799Z,13.17
2018-07-11T19:21:16.332Z,11.93
2018-07-11T19:24:00.312Z,11.67
2018-07-11T19:26:36.636Z,12.17
2018-07-11T19:29:25.325Z,12.73
2018-07-11T19:32:04.112Z,14.57
2018-07-11T19:36:52.422Z,12.83
2018-07-11T19:40:35.328Z,13.10
2018-07-11T19:43:13.741Z,13.57
2018-07-11T19:45:51.538Z,13.63
2018-07-11T19:49:32.084Z,12.73
2018-07-11T19:52:22.980Z,12.73
2018-07-11T19:57:06.563Z,12.07
2018-07-11T19:59:35.940Z,12.27
2018-07-11T20:02:05.119Z,13.13
2018-07-11T20:04:34.290Z,13.27
2018-07-11T20:07:03.380Z,13.20
2018-07-11T20:09:32.528Z,12.90
2018-07-11T20:12:01.692Z,12.83
2018-07-11T20:14:31.289Z,12.80
2018-07-11T20:17:00.437Z,12.73
2018-07-11T20:19:29.846Z,12.23
2018-07-11T20:21:59.392Z,13.33
2018-07-11T20:24:29.080Z,14.73
2018-07-11T20:26:58.850Z,13.57
2018-07-11T20:29:28.316Z,13.70
2018-07-11T20:31:57.931Z,13.83
2018-07-11T20:34:27.550Z,14.47
2018-07-11T20:36:57.372Z,13.43
2018-07-11T20:39:26.525Z,14.30
2018-07-11T20:41:55.695Z,14.20
2018-07-11T20:44:24.851Z,13.87
2018-07-11T20:46:54.257Z,14.43
2018-07-11T20:49:28.778Z,13.87
2018-07-11T20:52:00.880Z,15.77
2018-07-11T20:54:30.012Z,15.63
2018-07-11T20:56:59.242Z,16.57
2018-07-11T20:59:39.430Z,15.33
2018-07-11T21:02:19.863Z,15.87
2018-07-11T21:07:06.547Z,16.00
2018-07-11T21:10:44.243Z,15.83
2018-07-11T21:14:26.156Z,16.70
2018-07-11T21:17:24.651Z,18.00
2018-07-11T21:19:53.801Z,17.60
2018-07-11T21:22:22.957Z,17.43
2018-07-11T21:24:52.523Z,17.10
2018-07-11T21:27:21.705Z,15.87
2018-07-11T21:29:50.771Z,16.30
2018-07-11T21:32:20.038Z,16.00
2018-07-11T21:34:49.158Z,17.40
2018-07-11T21:37:18.255Z,17.17
2018-07-11T21:39:47.403Z,17.80
2018-07-11T21:42:16.540Z,16.87
2018-07-11T21:44:45.650Z,17.53
2018-07-11T21:47:14.878Z,16.83
2018-07-11T21:49:44.017Z,17.00
2018-07-11T21:52:13.080Z,16.00
2018-07-11T21:54:42.202Z,17.07
2018-07-11T21:57:11.293Z,17.20
2018-07-11T21:59:40.385Z,16.40
2018-07-11T22:02:09.459Z,15.50
2018-07-11T22:04:38.673Z,14.93
2018-07-11T22:07:07.783Z,16.33
2018-07-11T22:09:36.891Z,14.53
2018-07-11T22:12:06.211Z,14.63
2018-07-11T22:14:35.339Z,14.97
2018-07-11T22:17:15.641Z,14.87
2018-07-11T22:19:43.577Z,14.80
2018-07-11T22:22:11.485Z,14.47
2018-07-11T22:24:39.407Z,14.53
2018-07-11T22:27:07.329Z,14.00
2018-07-11T22:29:35.237Z,13.87
2018-07-11T22:32:03.190Z,14.10
2018-07-11T22:34:31.110Z,14.23
2018-07-11T22:36:59.056Z,14.20
2018-07-11T22:39:26.970Z,14.27
2018-07-11T22:41:54.896Z,14.50
2018-07-11T22:44:22.823Z,14.27
2018-07-11T22:46:50.749Z,14.17
2018-07-11T22:49:18.833Z,14.23
2018-07-11T22:51:46.747Z,14.30
2018-07-11T22:54:14.694Z,14.40
2018-07-11T22:56:42.573Z,14.20
2018-07-11T22:59:10.500Z,13.97
2018-07-11T23:01:38.436Z,15.17
2018-07-11T23:04:06.345Z,14.57
2018-07-11T23:06:34.245Z,14.20
2018-07-11T23:11:36.426Z,14.87
2018-07-11T23:14:04.356Z,14.37
2018-07-11T23:16:32.288Z,14.47
2018-07-11T23:19:00.246Z,14.73
2018-07-11T23:21:28.185Z,16.17
2018-07-11T23:23:56.096Z,15.90
2018-07-11T23:26:24.021Z,16.77
2018-07-11T23:28:51.984Z,16.13
2018-07-11T23:31:19.926Z,16.83
2018-07-11T23:33:47.861Z,17.33
2018-07-11T23:36:15.833Z,17.83
2018-07-11T23:38:43.826Z,17.93
2018-07-11T23:41:11.690Z,17.57
2018-07-11T23:43:39.633Z,16.90
2018-07-11T23:46:07.555Z,17.77
2018-07-11T23:48:35.622Z,18.23
2018-07-11T23:51:03.542Z,17.30
2018-07-11T23:53:31.467Z,16.43
2018-07-11T23:55:59.416Z,18.13
2018-07-11T23:58:27.348Z,18.77
